< < Back
Terminal Aerodrome Forecast


Current Version              Previous Versions:   1  2  3  4  5  6  7  8  9  

Terminal Aerodrome Forecast

289
FTUS42 KFFC 051121
TAFPDK
TAF
KPDK 051121Z 0512/0612 32010G16KT P6SM SKC
     FM051300 35008KT P6SM SKC
     FM060000 32003KT P6SM SCT250=



Latest METAR

955
SAUS70 KWBC 060000 RRH
MTRPDK
METAR KPDK 052353Z 31008KT 10SM CLR 06/M08 A3034 RMK AO2 SLP289
T00611078 10100 20061 53009


USA.gov is the U.S. government's official web portal to all federal, state and local government web resources and services.